Time;durP1;ratioP1;P1;durP2;ratioP2;P2;SDS_P1;SDS_P2;PMS_P1;PMS_P2;Temp;Humidity;BMP_temperature;BMP_pressure;BME280_temperature;BME280_humidity;BME280_pressure;Samples;Min_cycle;Max_cycle;Signal;HPM_P1;HPM_P2
2022/03/11 00:00:46;;;;;;;6.15;4.18;;;;;;;16.88;30.06;93985.06;4931825;29;20415;-86
2022/03/11 00:03:11;;;;;;;6.40;4.35;;;;;;;16.89;29.90;93976.34;4931241;29;20087;-86
2022/03/11 00:05:37;;;;;;;5.88;4.20;;;;;;;16.90;30.24;93972.38;4931406;29;20031;-86
2022/03/11 00:08:03;;;;;;;5.57;4.28;;;;;;;16.87;29.91;93970.66;4949915;28;20371;-86
2022/03/11 00:10:28;;;;;;;7.88;4.10;;;;;;;16.90;30.12;93966.19;4950445;29;20430;-88
2022/03/11 00:12:54;;;;;;;6.13;3.97;;;;;;;16.86;29.91;93963.69;4950398;29;20581;-88
2022/03/11 00:15:21;;;;;;;4.55;3.55;;;;;;;16.88;29.93;93966.69;4949643;28;20046;-86
2022/03/11 00:17:47;;;;;;;4.95;3.70;;;;;;;16.85;30.17;93973.13;4933772;29;20140;-86
2022/03/11 00:20:19;;;;;;;4.82;3.92;;;;;;;16.85;29.91;93964.19;4945558;28;20039;-86
2022/03/11 00:22:44;;;;;;;5.13;3.60;;;;;;;16.86;30.15;93969.16;4935286;29;20040;-86
2022/03/11 00:25:10;;;;;;;5.38;4.00;;;;;;;16.87;30.03;93961.72;4931683;29;20043;-86
2022/03/11 00:27:35;;;;;;;5.65;3.83;;;;;;;16.88;29.94;93972.16;4915127;29;20040;-86
2022/03/11 00:30:01;;;;;;;5.18;4.00;;;;;;;16.85;30.20;93962.19;4910388;29;20051;-86
2022/03/11 00:32:26;;;;;;;6.32;4.15;;;;;;;16.89;30.08;93970.88;4896780;29;20044;-88
2022/03/11 00:34:52;;;;;;;5.68;3.80;;;;;;;16.84;30.00;93966.16;4913140;29;20052;-87
2022/03/11 00:37:17;;;;;;;4.45;3.67;;;;;;;16.83;30.25;93970.13;4896847;29;20063;-87
2022/03/11 00:39:42;;;;;;;4.63;3.63;;;;;;;16.87;30.03;93964.44;4892220;29;20040;-86
2022/03/11 00:42:08;;;;;;;4.55;3.50;;;;;;;16.83;29.96;93961.19;4897206;29;20044;-86
2022/03/11 00:44:35;;;;;;;4.50;3.17;;;;;;;16.84;29.83;93962.69;4904997;29;20389;-86
2022/03/11 00:47:00;;;;;;;5.25;3.40;;;;;;;16.90;29.86;93955.25;4880622;29;20307;-87
2022/03/11 00:49:26;;;;;;;4.25;3.55;;;;;;;16.89;29.86;93954.50;4909018;29;20588;-86
2022/03/11 00:51:51;;;;;;;5.10;3.25;;;;;;;16.83;29.96;93951.00;4910436;29;20562;-86
2022/03/11 00:54:16;;;;;;;4.88;3.33;;;;;;;16.88;30.22;93949.56;4894084;29;20032;-87
2022/03/11 00:56:42;;;;;;;4.88;3.53;;;;;;;16.83;29.96;93937.38;4893871;29;20071;-86
2022/03/11 00:59:08;;;;;;;3.92;3.20;;;;;;;16.84;30.18;93943.56;4892806;29;20076;-86
2022/03/11 01:01:34;;;;;;;4.57;3.30;;;;;;;16.82;30.11;93937.84;4904115;29;20039;-86
2022/03/11 01:03:59;;;;;;;4.45;3.53;;;;;;;16.84;29.97;93932.66;4914762;29;20032;-86
2022/03/11 01:06:24;;;;;;;3.78;3.10;;;;;;;16.81;29.83;93934.38;4913912;29;20032;-87
2022/03/11 01:08:50;;;;;;;6.53;3.60;;;;;;;16.84;30.18;93925.22;4930446;29;20048;-86
2022/03/11 01:11:15;;;;;;;5.13;3.47;;;;;;;16.82;30.10;93938.59;4914131;29;20091;-86
2022/03/11 01:13:41;;;;;;;3.58;3.00;;;;;;;16.82;30.23;93937.84;4930730;29;20399;-86
2022/03/11 01:16:06;;;;;;;3.75;3.00;;;;;;;16.81;30.06;93928.16;4929465;29;20051;-86
2022/03/11 01:18:32;;;;;;;5.63;4.03;;;;;;;16.79;30.16;93926.66;4914004;29;20039;-86
2022/03/11 01:20:58;;;;;;;4.60;3.38;;;;;;;16.77;29.83;93929.13;4914060;29;20067;-86
2022/03/11 01:23:24;;;;;;;4.72;3.35;;;;;;;16.81;29.90;93923.44;4898409;28;20075;-87
2022/03/11 01:25:49;;;;;;;5.00;3.47;;;;;;;16.85;29.85;93931.41;4920898;29;20039;-86
2022/03/11 01:28:15;;;;;;;4.80;3.22;;;;;;;16.80;30.15;93916.50;4948954;28;20039;-86
2022/03/11 01:30:40;;;;;;;4.28;3.20;;;;;;;16.85;30.16;93920.50;4949275;29;20340;-87
2022/03/11 01:33:06;;;;;;;4.00;2.90;;;;;;;16.87;29.79;93926.22;4932811;28;20402;-87
2022/03/11 01:35:31;;;;;;;4.13;3.13;;;;;;;16.83;30.05;93915.53;4917715;29;20098;-86
2022/03/11 01:37:57;;;;;;;4.18;3.10;;;;;;;16.83;30.24;93922.97;4913957;29;20036;-86
2022/03/11 01:40:23;;;;;;;4.03;3.42;;;;;;;16.83;30.08;93915.53;4907218;29;20118;-86
2022/03/11 01:42:48;;;;;;;4.32;3.15;;;;;;;16.82;30.23;93916.00;4914418;29;20035;-86
2022/03/11 01:45:14;;;;;;;3.83;3.38;;;;;;;16.82;29.93;93911.28;4924110;29;20039;-86
2022/03/11 01:47:39;;;;;;;4.70;3.28;;;;;;;16.82;29.85;93908.56;4921402;29;20059;-92
2022/03/11 01:50:05;;;;;;;7.03;3.13;;;;;;;16.79;30.04;93899.34;4894438;29;20052;-86
2022/03/11 01:52:30;;;;;;;3.47;2.85;;;;;;;16.80;29.99;93911.03;4895180;29;20106;-86
2022/03/11 01:54:56;;;;;;;3.80;3.03;;;;;;;16.81;30.00;93901.59;4895526;29;20040;-86
2022/03/11 01:57:21;;;;;;;4.30;2.78;;;;;;;16.82;30.13;93908.56;4879478;29;20044;-87
2022/03/11 01:59:46;;;;;;;4.25;2.95;;;;;;;16.81;30.15;93895.41;4889268;29;20029;-85
2022/03/11 02:02:12;;;;;;;4.30;2.92;;;;;;;16.78;29.85;93910.78;4894198;29;20047;-86
2022/03/11 02:04:39;;;;;;;4.43;2.88;;;;;;;16.76;30.07;93908.53;4912008;29;20404;-86
2022/03/11 02:07:05;;;;;;;5.10;3.22;;;;;;;16.78;29.88;93897.13;4922738;29;20044;-86
2022/03/11 02:09:30;;;;;;;5.53;3.35;;;;;;;16.76;29.74;93899.59;4929222;29;20047;-86
2022/03/11 02:11:55;;;;;;;4.68;2.97;;;;;;;16.81;29.72;93904.34;4898682;29;20035;-87
2022/03/11 02:14:21;;;;;;;3.58;3.13;;;;;;;16.77;29.73;93901.06;4913442;29;20467;-86
2022/03/11 02:16:46;;;;;;;4.90;3.03;;;;;;;16.74;29.88;93897.34;4910359;29;20056;-86
2022/03/11 02:19:11;;;;;;;4.47;2.92;;;;;;;16.76;29.88;93903.06;4884664;29;20039;-86
2022/03/11 02:21:43;;;;;;;3.58;3.00;;;;;;;16.74;30.13;93897.34;4930000;29;20074;-87
2022/03/11 02:24:12;;;;;;;3.97;2.80;;;;;;;16.76;29.88;93907.78;4929495;29;20130;-86
2022/03/11 02:26:38;;;;;;;3.95;2.60;;;;;;;16.74;29.92;93897.34;4904433;29;20040;-87
2022/03/11 02:29:04;;;;;;;3.67;2.78;;;;;;;16.79;29.90;93895.88;4928947;29;20047;-86
2022/03/11 02:31:30;;;;;;;4.40;2.67;;;;;;;16.81;29.70;93887.94;4915172;29;20046;-86
2022/03/11 02:33:55;;;;;;;5.00;2.80;;;;;;;16.78;29.80;93884.22;4933610;29;20119;-86
2022/03/11 02:36:21;;;;;;;3.42;2.50;;;;;;;16.80;29.85;93889.19;4916790;29;20447;-86
2022/03/11 02:38:46;;;;;;;5.03;3.00;;;;;;;16.80;29.48;93886.47;4916655;29;20569;-86
2022/03/11 02:41:12;;;;;;;4.05;2.53;;;;;;;16.79;30.06;93887.69;4915039;29;20407;-86
2022/03/11 02:43:37;;;;;;;4.07;3.05;;;;;;;16.79;30.03;93890.41;4900548;29;20089;-86
2022/03/11 02:46:03;;;;;;;3.63;2.35;;;;;;;16.73;29.81;93884.19;4882123;29;20119;-86
2022/03/11 02:48:28;;;;;;;3.78;2.55;;;;;;;16.73;29.85;93892.38;4942912;29;20502;-86
2022/03/11 02:50:54;;;;;;;3.50;2.83;;;;;;;16.77;29.97;93879.25;4921567;29;20039;-91
2022/03/11 02:53:19;;;;;;;3.83;2.75;;;;;;;16.79;29.73;93876.78;4932658;29;20040;-85
2022/03/11 02:55:45;;;;;;;4.20;2.55;;;;;;;16.76;29.94;93880.47;4901261;29;20040;-86
2022/03/11 02:58:10;;;;;;;3.85;2.50;;;;;;;16.75;29.66;93866.06;4932888;29;20036;-88
2022/03/11 03:00:35;;;;;;;3.28;2.55;;;;;;;16.71;30.03;93871.00;4937378;29;20046;-86
2022/03/11 03:03:02;;;;;;;3.78;2.85;;;;;;;16.76;29.81;93872.28;4968296;28;20090;-86
2022/03/11 03:05:27;;;;;;;3.97;2.90;;;;;;;16.77;29.80;93866.34;4935772;29;20035;-86
2022/03/11 03:07:53;;;;;;;3.38;2.85;;;;;;;16.73;29.63;93865.81;4935361;29;20038;-88
2022/03/11 03:10:18;;;;;;;3.78;2.88;;;;;;;16.74;29.81;93856.38;4929868;29;20048;-86
2022/03/11 03:12:44;;;;;;;3.20;2.50;;;;;;;16.74;29.96;93861.09;4916746;29;20090;-87
2022/03/11 03:15:09;;;;;;;3.97;2.50;;;;;;;16.79;29.90;93863.13;4932469;29;20043;-87
2022/03/11 03:17:35;;;;;;;3.72;2.47;;;;;;;16.78;29.80;93861.63;4932141;29;20040;-86
2022/03/11 03:20:00;;;;;;;2.95;2.50;;;;;;;16.73;29.68;93857.63;4926243;29;20074;-86
2022/03/11 03:22:26;;;;;;;3.40;2.58;;;;;;;16.76;29.93;93847.72;4919131;29;20039;-91
2022/03/11 03:24:51;;;;;;;4.55;2.83;;;;;;;16.73;29.81;93854.91;4951593;29;20092;-87
2022/03/11 03:27:17;;;;;;;3.75;2.65;;;;;;;16.70;29.64;93844.94;4919150;28;20039;-91
2022/03/11 03:29:42;;;;;;;4.47;2.50;;;;;;;16.72;30.12;93841.72;4951015;29;20086;-86
2022/03/11 03:32:08;;;;;;;3.00;2.45;;;;;;;16.71;29.76;93846.44;4931978;29;20040;-88
2022/03/11 03:34:36;;;;;;;5.50;2.78;;;;;;;16.73;29.89;93838.50;4932051;29;20036;-86
2022/03/11 03:37:04;;;;;;;3.05;2.22;;;;;;;16.72;29.95;93844.47;4932359;29;20031;-86
2022/03/11 03:39:29;;;;;;;3.25;2.65;;;;;;;16.74;29.63;93839.25;4920345;29;20134;-86
2022/03/11 03:41:55;;;;;;;3.63;3.20;;;;;;;16.72;29.68;93826.09;4935193;29;20039;-87
2022/03/11 03:44:20;;;;;;;3.83;2.63;;;;;;;16.71;29.67;93826.59;4934152;28;20071;-86
2022/03/11 03:46:46;;;;;;;2.95;2.17;;;;;;;16.75;30.00;93840.75;4951962;28;20094;-86
2022/03/11 03:49:11;;;;;;;4.50;2.65;;;;;;;16.70;29.76;93833.28;4969710;28;20042;-87
2022/03/11 03:51:39;;;;;;;3.72;2.78;;;;;;;16.73;29.61;93822.13;4954145;28;20101;-86
2022/03/11 03:54:06;;;;;;;3.47;2.75;;;;;;;16.67;29.94;93824.09;4954038;28;20031;-86
2022/03/11 03:56:32;;;;;;;3.25;2.33;;;;;;;16.68;29.64;93813.91;4938170;28;20034;-87
2022/03/11 03:58:58;;;;;;;2.95;2.40;;;;;;;16.74;29.73;93814.69;4954221;28;20521;-87
2022/03/11 04:01:23;;;;;;;2.75;2.03;;;;;;;16.70;29.70;93817.66;4953488;28;20043;-86
2022/03/11 04:03:49;;;;;;;3.00;2.22;;;;;;;16.70;29.62;93809.47;4954143;28;20038;-86
2022/03/11 04:06:14;;;;;;;3.88;2.65;;;;;;;16.70;29.65;93817.66;4953366;28;20090;-86
2022/03/11 04:08:40;;;;;;;3.08;2.47;;;;;;;16.70;29.77;93822.34;4945776;29;20050;-86
2022/03/11 04:11:05;;;;;;;3.53;2.40;;;;;;;16.67;29.66;93813.16;4933966;28;20046;-86
2022/03/11 04:13:31;;;;;;;3.83;2.63;;;;;;;16.67;29.39;93820.63;4934508;29;20043;-86
2022/03/11 04:15:56;;;;;;;3.35;2.38;;;;;;;16.65;29.60;93821.13;4950497;29;20043;-86
2022/03/11 04:18:21;;;;;;;4.90;2.58;;;;;;;16.66;29.63;93816.41;4933681;29;20589;-89
2022/03/11 04:20:47;;;;;;;3.50;2.60;;;;;;;16.70;29.68;93822.34;4934511;29;20046;-86
2022/03/11 04:23:12;;;;;;;2.53;2.28;;;;;;;16.66;29.78;93814.44;4933894;29;20499;-86
2022/03/11 04:25:38;;;;;;;3.60;2.53;;;;;;;16.69;29.55;93818.13;4955142;28;20039;-86
2022/03/11 04:28:03;;;;;;;3.65;2.50;;;;;;;16.66;29.73;93819.88;4937149;28;20046;-87
2022/03/11 04:30:29;;;;;;;4.05;2.55;;;;;;;16.70;29.58;93808.72;4937040;28;20085;-87
2022/03/11 04:32:54;;;;;;;2.75;2.10;;;;;;;16.71;29.64;93810.22;4934156;29;20036;-87
2022/03/11 04:35:20;;;;;;;3.53;2.45;;;;;;;16.70;29.56;93805.97;4917741;28;20050;-86
2022/03/11 04:37:45;;;;;;;3.42;2.50;;;;;;;16.64;29.62;93811.44;4919337;29;20031;-86
2022/03/11 04:40:11;;;;;;;4.35;2.03;;;;;;;16.70;29.93;93811.44;4922668;29;20047;-87
2022/03/11 04:42:36;;;;;;;3.97;2.63;;;;;;;16.64;29.75;93811.44;4933782;29;20042;-87
2022/03/11 04:45:02;;;;;;;3.85;2.42;;;;;;;16.70;29.74;93808.72;4937345;28;20035;-89
2022/03/11 04:47:28;;;;;;;3.20;2.38;;;;;;;16.68;29.43;93822.09;4930258;29;20054;-86
2022/03/11 04:49:53;;;;;;;2.60;2.08;;;;;;;16.68;29.45;93811.19;4930811;29;20040;-94
2022/03/11 04:52:19;;;;;;;2.80;2.30;;;;;;;16.67;29.30;93818.63;4929477;29;20063;-86
2022/03/11 04:54:44;;;;;;;3.83;2.28;;;;;;;16.68;29.26;93811.19;4914139;29;20032;-86
2022/03/11 04:57:10;;;;;;;4.57;2.50;;;;;;;16.65;29.58;93814.91;4914412;29;20044;-87
2022/03/11 04:59:35;;;;;;;2.80;2.15;;;;;;;16.65;29.59;93818.41;4930105;29;20510;-86
2022/03/11 05:02:01;;;;;;;3.20;2.25;;;;;;;16.66;29.37;93819.88;4898817;29;20039;-86
2022/03/11 05:04:26;;;;;;;4.00;2.33;;;;;;;16.67;29.07;93815.19;4929471;29;20036;-86
2022/03/11 05:06:52;;;;;;;2.97;2.33;;;;;;;16.68;29.39;93814.66;4931146;29;20058;-86
2022/03/11 05:09:17;;;;;;;3.50;2.63;;;;;;;16.71;29.53;93818.41;4897980;29;20447;-86
2022/03/11 05:11:43;;;;;;;5.65;2.63;;;;;;;16.65;29.24;93812.94;4914596;29;20454;-87
2022/03/11 05:14:08;;;;;;;4.40;2.70;;;;;;;16.65;28.98;93829.31;4898293;29;20044;-87
2022/03/11 05:16:33;;;;;;;3.88;2.38;;;;;;;16.65;29.14;93826.59;4914332;29;20040;-87
2022/03/11 05:18:59;;;;;;;3.20;2.45;;;;;;;16.64;29.15;93825.09;4931833;29;20032;-86
2022/03/11 05:21:24;;;;;;;3.20;2.40;;;;;;;16.63;29.47;93826.31;4913609;29;20402;-86
2022/03/11 05:23:50;;;;;;;3.20;2.53;;;;;;;16.63;29.40;93833.72;4904527;29;20040;-86
2022/03/11 05:26:30;;;;;;;3.22;2.42;;;;;;;16.61;29.25;93834.22;4901687;29;20043;-86
2022/03/11 05:29:00;;;;;;;4.13;2.13;;;;;;;16.62;29.53;93832.25;4929400;29;20052;-86
2022/03/11 05:31:26;;;;;;;2.85;2.10;;;;;;;16.60;29.70;93838.19;4880630;29;20411;-86
2022/03/11 05:33:52;;;;;;;3.65;2.78;;;;;;;16.58;29.52;93842.63;4900154;29;20040;-87
2022/03/11 05:36:17;;;;;;;2.60;2.22;;;;;;;16.60;29.49;93843.66;4910959;29;20043;-85
2022/03/11 05:38:43;;;;;;;3.47;2.22;;;;;;;16.62;29.29;93841.19;4882533;29;20028;-87
2022/03/11 05:41:09;;;;;;;3.50;2.60;;;;;;;16.59;29.54;93849.59;4923919;29;20040;-92
2022/03/11 05:43:34;;;;;;;3.60;2.28;;;;;;;16.59;29.58;93839.41;4911676;29;20119;-86
2022/03/11 05:45:59;;;;;;;5.25;2.47;;;;;;;16.57;29.57;93846.59;4895111;29;20024;-86
2022/03/11 05:48:30;;;;;;;3.10;2.00;;;;;;;16.57;29.42;93847.34;4904917;29;20048;-86
2022/03/11 05:50:56;;;;;;;4.80;2.15;;;;;;;16.63;29.79;93836.47;4910880;29;20033;-85
2022/03/11 05:53:21;;;;;;;3.17;2.13;;;;;;;16.61;29.46;93836.94;4928458;29;20062;-88
2022/03/11 05:55:47;;;;;;;3.33;2.30;;;;;;;16.64;29.45;93838.00;4931541;29;20044;-88
2022/03/11 05:58:12;;;;;;;2.65;1.95;;;;;;;16.66;29.25;93836.25;4930264;29;20033;-94
2022/03/11 06:00:38;;;;;;;2.20;1.80;;;;;;;16.62;29.11;93840.44;4933647;29;20403;-85
2022/03/11 06:03:03;;;;;;;2.50;1.92;;;;;;;16.67;29.26;93850.66;4948703;29;20455;-88
2022/03/11 06:05:29;;;;;;;2.65;2.22;;;;;;;16.64;29.08;93846.91;4938037;29;20050;-88
2022/03/11 06:07:54;;;;;;;3.08;1.90;;;;;;;16.66;29.11;93851.91;4934677;29;20095;-89
2022/03/11 06:10:20;;;;;;;2.85;1.60;;;;;;;16.69;29.16;93842.69;4933957;29;20487;-92
2022/03/11 06:12:45;;;;;;;3.00;2.58;;;;;;;16.63;28.46;93839.97;4931033;29;20508;-89
2022/03/11 06:15:11;;;;;;;4.97;2.70;;;;;;;16.46;27.65;93839.81;4939983;29;20446;-91
2022/03/11 06:17:37;;;;;;;5.80;2.58;;;;;;;16.43;27.98;93840.06;4899725;29;20043;-92
2022/03/11 06:20:03;;;;;;;4.18;3.15;;;;;;;16.37;27.61;93842.03;4883185;29;20116;-88
2022/03/11 06:22:29;;;;;;;4.30;3.38;;;;;;;16.27;27.63;93838.72;4894299;29;20075;-88
2022/03/11 06:24:56;;;;;;;6.13;3.65;;;;;;;16.31;27.05;93843.97;4919302;29;20040;-92
2022/03/11 06:27:24;;;;;;;4.68;3.53;;;;;;;16.11;26.56;93839.38;4932553;29;20054;-87
2022/03/11 06:29:50;;;;;;;6.80;3.55;;;;;;;16.14;26.43;93837.66;4933361;29;20035;-87
2022/03/11 06:32:15;;;;;;;5.95;3.80;;;;;;;16.05;26.14;93833.13;4901208;29;20188;-89
2022/03/11 06:34:41;;;;;;;15.77;4.22;;;;;;;16.01;26.21;93847.00;4902600;29;20048;-89
2022/03/11 06:37:06;;;;;;;7.88;4.90;;;;;;;15.90;25.71;93841.44;4933226;29;20054;-89
2022/03/11 06:39:32;;;;;;;4.97;4.20;;;;;;;15.96;25.50;93844.97;4935384;29;20044;-87
2022/03/11 06:41:57;;;;;;;10.27;4.38;;;;;;;15.85;25.60;93839.41;4938023;29;20431;-88
2022/03/11 06:44:22;;;;;;;14.00;7.75;;;;;;;15.88;25.80;93843.16;4955281;23;20043;-91
2022/03/11 06:46:48;;;;;;;17.15;9.05;;;;;;;15.93;25.74;93839.72;4949115;28;20034;-90
2022/03/11 06:49:13;;;;;;;10.93;6.65;;;;;;;16.04;25.58;93847.97;4957310;28;20051;-90
2022/03/11 06:51:39;;;;;;;14.30;8.95;;;;;;;16.13;25.41;93850.53;4944296;29;20064;-93
2022/03/11 06:54:06;;;;;;;8.60;5.88;;;;;;;16.17;25.89;93850.31;4932017;29;20027;-93
2022/03/11 06:56:32;;;;;;;13.90;7.05;;;;;;;16.24;25.36;93855.34;4951344;28;20059;-92
2022/03/11 06:58:57;;;;;;;21.17;9.73;;;;;;;16.26;25.40;93845.41;4940252;28;20623;-92
2022/03/11 07:01:24;;;;;;;37.33;16.35;;;;;;;16.31;25.56;93844.69;4923563;28;20039;-94
2022/03/11 07:03:50;;;;;;;45.90;24.80;;;;;;;16.37;25.59;93847.47;4941631;28;20277;-92
2022/03/11 07:06:15;;;;;;;45.78;24.38;;;;;;;16.40;25.68;93851.97;4939791;28;20050;-92
2022/03/11 07:08:41;;;;;;;43.70;20.33;;;;;;;16.43;25.15;93846.28;4940723;28;20512;-93
2022/03/11 07:11:06;;;;;;;51.15;22.92;;;;;;;16.48;25.42;93852.25;4930544;29;20035;-92
2022/03/11 07:13:32;;;;;;;106.78;26.60;;;;;;;16.47;25.41;93854.22;4904595;29;20406;-91
2022/03/11 07:15:57;;;;;;;65.13;25.15;;;;;;;16.54;25.54;93853.03;4912168;28;20043;-90
2022/03/11 07:18:23;;;;;;;65.50;24.17;;;;;;;16.57;25.51;93855.53;4971915;28;20043;-90
2022/03/11 07:20:48;;;;;;;47.97;23.10;;;;;;;16.61;25.50;93856.06;4939110;28;20051;-90
2022/03/11 07:23:14;;;;;;;61.33;27.13;;;;;;;16.63;25.22;93841.91;4921802;28;20635;-89
2022/03/11 07:25:40;;;;;;;53.28;27.80;;;;;;;16.66;25.71;93844.44;4952122;28;20031;-89
2022/03/11 07:28:05;;;;;;;85.57;40.00;;;;;;;16.67;26.07;93847.94;4938679;28;20042;-89
2022/03/11 07:30:31;;;;;;;74.03;34.78;;;;;;;16.72;25.42;93839.75;4954957;28;20034;-92
2022/03/11 07:32:56;;;;;;;74.82;33.65;;;;;;;16.71;26.06;93834.78;4939235;28;20042;-89
2022/03/11 07:35:22;;;;;;;93.20;39.85;;;;;;;16.75;25.72;93848.94;4937605;28;20043;-91
2022/03/11 07:37:47;;;;;;;78.70;35.70;;;;;;;16.77;25.51;93839.03;4922824;28;20081;-89
2022/03/11 07:40:13;;;;;;;67.65;32.25;;;;;;;16.79;25.71;93836.56;4916447;29;20394;-89
2022/03/11 07:42:42;;;;;;;66.80;30.90;;;;;;;16.78;26.09;93840.53;4904065;29;20122;-90
2022/03/11 07:45:10;;;;;;;48.60;24.60;;;;;;;16.78;25.36;93832.34;4932203;28;20039;-90
2022/03/11 07:47:36;;;;;;;62.17;28.23;;;;;;;16.79;25.89;93844.00;4924315;29;20039;-89
2022/03/11 07:50:02;;;;;;;51.90;24.73;;;;;;;16.83;25.76;93849.25;4920327;28;20069;-90
2022/03/11 07:52:27;;;;;;;53.50;27.48;;;;;;;16.82;25.88;93851.22;4922935;28;20089;-90
2022/03/11 07:54:53;;;;;;;45.30;24.08;;;;;;;16.83;25.55;93847.25;4938740;28;20041;-91
2022/03/11 07:57:18;;;;;;;53.92;23.45;;;;;;;16.85;25.97;93844.78;4934644;29;20102;-88
2022/03/11 07:59:44;;;;;;;46.38;24.83;;;;;;;16.87;26.05;93841.56;4919737;29;20046;-90
2022/03/11 08:02:10;;;;;;;56.40;31.98;;;;;;;16.88;26.05;93835.63;4918981;28;20043;-92
2022/03/11 08:04:36;;;;;;;87.18;46.00;;;;;;;16.92;26.05;93840.81;4938417;28;20046;-88
2022/03/11 08:07:06;;;;;;;76.75;39.78;;;;;;;16.93;25.66;93847.78;4933277;29;20043;-89
2022/03/11 08:09:33;;;;;;;72.88;36.90;;;;;;;16.92;25.87;93841.56;4914976;28;20038;-89
2022/03/11 08:11:59;;;;;;;63.97;33.42;;;;;;;16.95;26.32;93845.31;4923439;28;20032;-90
2022/03/11 08:14:25;;;;;;;65.63;34.90;;;;;;;16.95;25.93;93834.38;4934337;28;20062;-93
2022/03/11 08:16:50;;;;;;;46.88;27.50;;;;;;;16.98;26.24;93845.06;4920952;28;20038;-93
2022/03/11 08:19:16;;;;;;;63.55;29.52;;;;;;;16.98;26.23;93858.72;4922585;28;20043;-92
2022/03/11 08:21:41;;;;;;;62.72;28.05;;;;;;;16.93;26.06;93845.78;4923152;28;20039;-92
2022/03/11 08:24:07;;;;;;;51.78;26.65;;;;;;;16.98;26.02;93849.78;4922969;28;20039;-95
2022/03/11 08:26:32;;;;;;;47.25;29.17;;;;;;;16.97;26.42;93840.09;4922577;28;20038;-94
2022/03/11 08:28:58;;;;;;;42.60;26.15;;;;;;;16.94;26.23;93847.28;4922817;28;20089;-92
2022/03/11 08:31:23;;;;;;;53.25;37.45;;;;;;;16.95;26.51;93843.31;4921887;28;20047;-93
2022/03/11 08:33:49;;;;;;;54.95;30.92;;;;;;;16.98;26.62;93849.78;4922682;28;20110;-90
2022/03/11 08:36:16;;;;;;;63.53;35.05;;;;;;;16.95;26.84;93846.06;4936908;28;20039;-90
2022/03/11 08:38:49;;;;;;;60.45;34.85;;;;;;;16.98;27.05;93847.06;4900900;29;20127;-91
2022/03/11 08:41:40;;;;;;;46.05;33.25;;;;;;;16.96;27.16;93860.47;4884891;29;20028;-93
2022/03/11 08:44:07;;;;;;;49.65;33.92;;;;;;;16.95;27.14;93867.91;4896289;29;20044;-94
2022/03/11 08:46:33;;;;;;;46.35;34.22;;;;;;;16.97;27.05;93862.69;4867266;29;20423;-95
2022/03/11 08:48:59;;;;;;;41.13;32.40;;;;;;;17.00;26.82;93864.47;4880237;29;20048;-91
2022/03/11 08:51:25;;;;;;;51.97;35.75;;;;;;;16.97;26.87;93867.41;4872199;29;20655;-90
2022/03/11 08:53:51;;;;;;;59.55;39.75;;;;;;;17.00;27.33;93866.44;4866884;29;20052;-93
2022/03/11 08:56:21;;;;;;;55.92;40.35;;;;;;;16.96;26.99;93866.66;4878717;29;20051;-89
2022/03/11 08:58:54;;;;;;;69.85;44.47;;;;;;;16.99;27.07;93862.97;4899099;29;20731;-90
2022/03/11 09:01:20;;;;;;;72.97;46.45;;;;;;;17.00;26.92;93863.72;4902503;29;20040;-92
2022/03/11 09:03:50;;;;;;;82.63;47.92;;;;;;;16.97;26.79;93861.94;4899936;29;20852;-94
2022/03/11 09:06:43;;;;;;;74.03;48.42;;;;;;;17.00;27.04;93871.91;4822083;29;20121;-95
2022/03/11 09:09:14;;;;;;;79.15;48.03;;;;;;;17.01;27.00;93876.88;4851752;29;20105;-94
2022/03/11 09:11:40;;;;;;;68.70;48.55;;;;;;;16.97;27.14;93867.41;4862278;29;20041;-89
2022/03/11 09:14:08;;;;;;;63.72;46.05;;;;;;;16.96;27.09;93868.66;4864725;29;20033;-92
2022/03/11 09:16:39;;;;;;;71.57;49.20;;;;;;;17.00;27.18;93874.63;4883455;29;20060;-91
2022/03/11 09:19:05;;;;;;;64.20;46.08;;;;;;;17.00;27.03;93867.19;4886204;29;20036;-89
2022/03/11 09:21:30;;;;;;;67.13;44.70;;;;;;;17.02;26.88;93869.44;4890199;29;20040;-91
2022/03/11 09:23:56;;;;;;;63.92;44.85;;;;;;;16.99;27.12;93868.41;4896107;29;20080;-90
2022/03/11 09:26:21;;;;;;;65.85;45.70;;;;;;;16.98;27.18;93866.19;4878424;29;20531;-92
2022/03/11 09:28:46;;;;;;;64.55;44.13;;;;;;;16.97;27.07;93862.69;4894539;29;20676;-91
2022/03/11 09:31:13;;;;;;;58.65;43.45;;;;;;;16.97;27.15;93859.97;4894236;29;20515;-91
2022/03/11 09:33:38;;;;;;;57.28;40.78;;;;;;;16.98;27.22;93871.63;4863422;29;20059;-88
2022/03/11 09:36:05;;;;;;;64.13;42.55;;;;;;;16.93;26.71;93869.63;4878885;28;20531;-88
2022/03/11 09:38:30;;;;;;;57.63;40.70;;;;;;;16.98;27.00;93857.97;4933734;28;20073;-89
2022/03/11 09:40:56;;;;;;;64.95;40.55;;;;;;;16.95;27.22;93858.97;4931531;28;20035;-89
2022/03/11 09:43:22;;;;;;;57.13;39.53;;;;;;;16.97;27.45;93859.22;4935919;28;20055;-90
2022/03/11 09:45:47;;;;;;;52.13;38.65;;;;;;;16.96;27.11;93855.75;4920173;28;20070;-89
2022/03/11 09:48:16;;;;;;;49.53;37.13;;;;;;;16.94;26.68;93855.47;4935849;28;20043;-89
2022/03/11 09:50:41;;;;;;;50.15;33.95;;;;;;;17.00;27.10;93852.78;4920470;28;20142;-88
2022/03/11 09:53:07;;;;;;;47.00;36.47;;;;;;;16.97;27.05;93864.69;4937089;28;20031;-91
2022/03/11 09:55:32;;;;;;;45.42;32.53;;;;;;;16.99;26.92;93867.69;4946300;28;20083;-88
2022/03/11 09:57:57;;;;;;;47.03;34.55;;;;;;;16.99;26.95;93864.94;4951995;28;20035;-87
2022/03/11 10:00:23;;;;;;;41.20;32.00;;;;;;;16.96;26.77;93869.41;4932084;28;20376;-89
2022/03/11 10:02:48;;;;;;;49.17;34.67;;;;;;;16.96;26.77;93871.38;4916742;29;20525;-89
2022/03/11 10:05:14;;;;;;;49.22;32.95;;;;;;;16.96;26.89;93874.88;4916406;29;20133;-88
2022/03/11 10:07:39;;;;;;;45.15;32.92;;;;;;;16.97;27.25;93868.16;4932920;29;20039;-89
2022/03/11 10:10:13;;;;;;;44.17;32.05;;;;;;;16.95;26.90;93862.44;4901261;29;20032;-89
2022/03/11 10:12:42;;;;;;;44.22;31.60;;;;;;;16.95;27.18;93876.09;4901549;29;20039;-91
2022/03/11 10:15:07;;;;;;;45.83;32.42;;;;;;;16.96;27.42;93863.94;4901030;29;20043;-93
2022/03/11 10:17:43;;;;;;;49.67;30.73;;;;;;;16.95;27.15;93858.97;4901746;29;20062;-89
2022/03/11 10:20:10;;;;;;;40.75;28.90;;;;;;;16.98;27.25;93863.44;4901309;29;20047;-89
2022/03/11 10:22:36;;;;;;;48.85;31.55;;;;;;;16.98;27.23;93850.53;4901335;29;20062;-89
2022/03/11 10:25:18;;;;;;;63.65;31.55;;;;;;;16.96;26.88;93857.72;4916730;28;20427;-89
2022/03/11 10:28:03;;;;;;;51.28;27.80;;;;;;;16.98;27.07;93857.97;4938443;28;20034;-89
2022/03/11 10:30:31;;;;;;;53.88;28.80;;;;;;;16.98;27.40;93852.53;4967382;28;20066;-90
2022/03/11 10:32:58;;;;;;;39.70;28.67;;;;;;;16.97;27.34;93857.25;4936254;28;20340;-92
2022/03/11 10:35:38;;;;;;;37.90;25.35;;;;;;;16.97;27.11;93849.03;4916201;28;20117;-89
2022/03/11 10:38:11;;;;;;;40.22;27.02;;;;;;;16.99;27.36;93867.69;4901079;29;20031;-88
2022/03/11 10:40:52;;;;;;;39.45;25.30;;;;;;;16.95;26.90;93854.25;4910854;28;20031;-89
2022/03/11 10:43:21;;;;;;;;;;;;;;;16.99;27.21;93845.81;4920256;28;20039;-89
2022/03/11 10:45:54;;;;;;;42.50;25.50;;;;;;;16.94;27.12;93854.72;4918769;29;19926;-92
2022/03/11 10:48:43;;;;;;;39.03;24.58;;;;;;;16.95;26.79;93848.03;4916295;29;20039;-89
2022/03/11 10:51:13;;;;;;;36.50;23.15;;;;;;;16.95;26.55;93848.78;4932291;29;20043;-89
2022/03/11 10:53:39;;;;;;;34.35;24.02;;;;;;;16.94;26.75;93841.81;4933704;29;20042;-90
2022/03/11 10:56:05;;;;;;;31.30;23.55;;;;;;;16.96;27.27;93839.34;4904499;29;20414;-90
2022/03/11 10:58:31;;;;;;;38.10;22.80;;;;;;;17.01;27.07;93840.63;4904751;29;20035;-89
2022/03/11 11:00:56;;;;;;;31.10;22.30;;;;;;;16.95;27.40;93834.38;4904470;29;20474;-89
2022/03/11 11:03:22;;;;;;;30.35;20.58;;;;;;;16.99;26.96;93832.16;4919539;29;20418;-89
2022/03/11 11:05:48;;;;;;;28.70;20.65;;;;;;;16.95;26.88;93840.59;4919998;29;20031;-89
2022/03/11 11:08:13;;;;;;;29.42;21.80;;;;;;;16.97;26.63;93829.94;4903646;29;20047;-89
2022/03/11 11:10:39;;;;;;;26.60;19.50;;;;;;;16.97;27.07;93832.66;4919730;29;20031;-90
2022/03/11 11:13:06;;;;;;;30.08;20.27;;;;;;;16.98;26.70;93825.22;4903336;29;20043;-89
2022/03/11 11:15:32;;;;;;;33.30;19.88;;;;;;;16.97;27.21;93837.38;4919987;29;20039;-89
2022/03/11 11:17:57;;;;;;;21.95;18.77;;;;;;;16.94;26.68;93825.44;4919217;29;20063;-89
2022/03/11 11:20:30;;;;;;;24.45;18.25;;;;;;;16.94;26.49;93828.19;4900316;29;20039;-91
2022/03/11 11:22:55;;;;;;;21.02;16.40;;;;;;;16.98;26.73;93809.56;4885313;29;20044;-88